sensor_id;sensor_type;location;lat;lon;timestamp;P1;durP1;ratioP1;P2;durP2;ratioP2
56720;SDS011;53183;47.412;18.884;2023-11-19T00:00:19;7.75;;;4.28;;
56720;SDS011;53183;47.412;18.884;2023-11-19T00:02:47;7.95;;;4.20;;
56720;SDS011;53183;47.412;18.884;2023-11-19T00:05:14;8.75;;;3.97;;
56720;SDS011;53183;47.412;18.884;2023-11-19T00:07:44;9.30;;;4.53;;
56720;SDS011;53183;47.412;18.884;2023-11-19T00:10:12;7.43;;;4.30;;
56720;SDS011;53183;47.412;18.884;2023-11-19T00:12:42;7.10;;;4.10;;
56720;SDS011;53183;47.412;18.884;2023-11-19T00:15:12;8.32;;;4.00;;
56720;SDS011;53183;47.412;18.884;2023-11-19T00:17:40;9.38;;;4.47;;
56720;SDS011;53183;47.412;18.884;2023-11-19T00:20:16;9.23;;;4.25;;
56720;SDS011;53183;47.412;18.884;2023-11-19T00:22:45;10.02;;;4.37;;
56720;SDS011;53183;47.412;18.884;2023-11-19T00:25:20;8.18;;;3.47;;
56720;SDS011;53183;47.412;18.884;2023-11-19T00:27:50;9.88;;;4.37;;
56720;SDS011;53183;47.412;18.884;2023-11-19T00:30:18;8.77;;;4.22;;
56720;SDS011;53183;47.412;18.884;2023-11-19T00:32:45;16.75;;;4.60;;
56720;SDS011;53183;47.412;18.884;2023-11-19T00:35:13;7.60;;;3.87;;
56720;SDS011;53183;47.412;18.884;2023-11-19T00:37:43;8.82;;;3.92;;
56720;SDS011;53183;47.412;18.884;2023-11-19T00:40:13;9.05;;;4.28;;
56720;SDS011;53183;47.412;18.884;2023-11-19T00:42:43;10.20;;;4.53;;
56720;SDS011;53183;47.412;18.884;2023-11-19T00:45:10;18.35;;;4.82;;
56720;SDS011;53183;47.412;18.884;2023-11-19T00:47:39;7.72;;;4.03;;
56720;SDS011;53183;47.412;18.884;2023-11-19T00:50:08;7.15;;;3.87;;
56720;SDS011;53183;47.412;18.884;2023-11-19T00:52:46;11.85;;;4.70;;
56720;SDS011;53183;47.412;18.884;2023-11-19T00:55:15;10.95;;;4.65;;
56720;SDS011;53183;47.412;18.884;2023-11-19T00:57:42;9.52;;;4.90;;
56720;SDS011;53183;47.412;18.884;2023-11-19T01:00:09;8.00;;;4.62;;
56720;SDS011;53183;47.412;18.884;2023-11-19T01:02:48;9.45;;;4.30;;
56720;SDS011;53183;47.412;18.884;2023-11-19T01:05:19;8.85;;;4.55;;
56720;SDS011;53183;47.412;18.884;2023-11-19T01:07:50;8.82;;;4.50;;
56720;SDS011;53183;47.412;18.884;2023-11-19T01:10:20;9.85;;;4.90;;
56720;SDS011;53183;47.412;18.884;2023-11-19T01:12:48;9.55;;;3.90;;
56720;SDS011;53183;47.412;18.884;2023-11-19T01:15:16;7.82;;;4.05;;
56720;SDS011;53183;47.412;18.884;2023-11-19T01:17:46;9.98;;;4.95;;
56720;SDS011;53183;47.412;18.884;2023-11-19T01:20:16;10.10;;;5.07;;
56720;SDS011;53183;47.412;18.884;2023-11-19T01:22:44;9.48;;;3.95;;
56720;SDS011;53183;47.412;18.884;2023-11-19T01:25:11;7.68;;;4.05;;
56720;SDS011;53183;47.412;18.884;2023-11-19T01:27:39;7.80;;;4.00;;
56720;SDS011;53183;47.412;18.884;2023-11-19T01:30:06;8.60;;;3.78;;
56720;SDS011;53183;47.412;18.884;2023-11-19T01:32:37;7.32;;;4.57;;
56720;SDS011;53183;47.412;18.884;2023-11-19T01:35:04;9.18;;;4.93;;
56720;SDS011;53183;47.412;18.884;2023-11-19T01:37:32;11.93;;;5.35;;
56720;SDS011;53183;47.412;18.884;2023-11-19T01:40:01;9.30;;;5.12;;
56720;SDS011;53183;47.412;18.884;2023-11-19T01:42:37;9.75;;;4.68;;
56720;SDS011;53183;47.412;18.884;2023-11-19T01:45:06;10.75;;;5.25;;
56720;SDS011;53183;47.412;18.884;2023-11-19T01:47:35;12.18;;;5.37;;
56720;SDS011;53183;47.412;18.884;2023-11-19T01:50:03;9.75;;;4.90;;
56720;SDS011;53183;47.412;18.884;2023-11-19T01:52:35;10.68;;;5.05;;
56720;SDS011;53183;47.412;18.884;2023-11-19T01:55:07;11.02;;;5.07;;
56720;SDS011;53183;47.412;18.884;2023-11-19T01:57:36;11.40;;;5.55;;
56720;SDS011;53183;47.412;18.884;2023-11-19T02:00:06;14.10;;;5.45;;
56720;SDS011;53183;47.412;18.884;2023-11-19T02:02:39;13.75;;;5.93;;
56720;SDS011;53183;47.412;18.884;2023-11-19T02:05:09;13.43;;;5.55;;
56720;SDS011;53183;47.412;18.884;2023-11-19T02:07:40;13.57;;;5.75;;
56720;SDS011;53183;47.412;18.884;2023-11-19T02:10:07;12.73;;;5.15;;
56720;SDS011;53183;47.412;18.884;2023-11-19T02:12:41;10.18;;;4.70;;
56720;SDS011;53183;47.412;18.884;2023-11-19T02:15:12;11.43;;;5.18;;
56720;SDS011;53183;47.412;18.884;2023-11-19T02:17:39;9.07;;;4.47;;
56720;SDS011;53183;47.412;18.884;2023-11-19T02:20:07;11.73;;;4.75;;
56720;SDS011;53183;47.412;18.884;2023-11-19T02:22:42;12.95;;;5.45;;
56720;SDS011;53183;47.412;18.884;2023-11-19T02:25:12;10.45;;;4.53;;
56720;SDS011;53183;47.412;18.884;2023-11-19T02:27:51;10.55;;;4.82;;
56720;SDS011;53183;47.412;18.884;2023-11-19T02:30:24;15.98;;;4.85;;
56720;SDS011;53183;47.412;18.884;2023-11-19T02:32:55;13.77;;;5.95;;
56720;SDS011;53183;47.412;18.884;2023-11-19T02:35:24;24.35;;;7.95;;
56720;SDS011;53183;47.412;18.884;2023-11-19T02:37:56;15.65;;;6.75;;
56720;SDS011;53183;47.412;18.884;2023-11-19T02:40:23;11.93;;;5.87;;
56720;SDS011;53183;47.412;18.884;2023-11-19T02:42:54;16.62;;;6.18;;
56720;SDS011;53183;47.412;18.884;2023-11-19T02:45:23;15.93;;;5.85;;
56720;SDS011;53183;47.412;18.884;2023-11-19T02:47:52;17.00;;;5.70;;
56720;SDS011;53183;47.412;18.884;2023-11-19T02:50:21;16.15;;;6.03;;
56720;SDS011;53183;47.412;18.884;2023-11-19T02:52:53;15.98;;;6.05;;
56720;SDS011;53183;47.412;18.884;2023-11-19T02:55:25;16.05;;;7.32;;
56720;SDS011;53183;47.412;18.884;2023-11-19T02:57:55;14.30;;;6.47;;
56720;SDS011;53183;47.412;18.884;2023-11-19T03:00:26;14.15;;;6.93;;
56720;SDS011;53183;47.412;18.884;2023-11-19T03:03:03;10.85;;;6.18;;
56720;SDS011;53183;47.412;18.884;2023-11-19T03:05:47;17.30;;;6.72;;
56720;SDS011;53183;47.412;18.884;2023-11-19T03:08:15;11.63;;;5.68;;
56720;SDS011;53183;47.412;18.884;2023-11-19T03:10:46;12.80;;;5.87;;
56720;SDS011;53183;47.412;18.884;2023-11-19T03:13:14;11.32;;;5.57;;
56720;SDS011;53183;47.412;18.884;2023-11-19T03:15:42;15.73;;;6.45;;
56720;SDS011;53183;47.412;18.884;2023-11-19T03:18:09;14.55;;;5.28;;
56720;SDS011;53183;47.412;18.884;2023-11-19T03:20:37;11.10;;;5.53;;
56720;SDS011;53183;47.412;18.884;2023-11-19T03:23:04;12.30;;;5.82;;
56720;SDS011;53183;47.412;18.884;2023-11-19T03:25:34;12.13;;;5.57;;
56720;SDS011;53183;47.412;18.884;2023-11-19T03:28:03;10.32;;;5.97;;
56720;SDS011;53183;47.412;18.884;2023-11-19T03:30:33;11.77;;;4.93;;
56720;SDS011;53183;47.412;18.884;2023-11-19T03:33:01;12.40;;;4.87;;
56720;SDS011;53183;47.412;18.884;2023-11-19T03:35:29;10.10;;;4.93;;
56720;SDS011;53183;47.412;18.884;2023-11-19T03:37:57;14.55;;;4.82;;
56720;SDS011;53183;47.412;18.884;2023-11-19T03:40:24;12.82;;;5.55;;
56720;SDS011;53183;47.412;18.884;2023-11-19T03:42:53;13.30;;;5.62;;
56720;SDS011;53183;47.412;18.884;2023-11-19T03:45:20;10.32;;;5.32;;
56720;SDS011;53183;47.412;18.884;2023-11-19T03:47:48;12.27;;;5.03;;
56720;SDS011;53183;47.412;18.884;2023-11-19T03:50:17;8.57;;;4.37;;
56720;SDS011;53183;47.412;18.884;2023-11-19T03:52:48;11.77;;;4.62;;
56720;SDS011;53183;47.412;18.884;2023-11-19T03:55:16;10.93;;;4.62;;
56720;SDS011;53183;47.412;18.884;2023-11-19T03:57:44;12.50;;;6.00;;
56720;SDS011;53183;47.412;18.884;2023-11-19T04:00:12;10.95;;;4.80;;
56720;SDS011;53183;47.412;18.884;2023-11-19T04:02:50;11.48;;;5.28;;
56720;SDS011;53183;47.412;18.884;2023-11-19T04:05:18;11.12;;;5.20;;
56720;SDS011;53183;47.412;18.884;2023-11-19T04:07:46;13.15;;;5.72;;
56720;SDS011;53183;47.412;18.884;2023-11-19T04:10:14;14.63;;;6.05;;
56720;SDS011;53183;47.412;18.884;2023-11-19T04:12:43;11.98;;;5.47;;
56720;SDS011;53183;47.412;18.884;2023-11-19T04:15:19;19.37;;;5.95;;
56720;SDS011;53183;47.412;18.884;2023-11-19T04:17:46;10.10;;;4.93;;
56720;SDS011;53183;47.412;18.884;2023-11-19T04:20:14;11.55;;;4.68;;
56720;SDS011;53183;47.412;18.884;2023-11-19T04:22:41;8.15;;;4.65;;
56720;SDS011;53183;47.412;18.884;2023-11-19T04:25:08;11.93;;;5.45;;
56720;SDS011;53183;47.412;18.884;2023-11-19T04:27:38;12.18;;;5.85;;
56720;SDS011;53183;47.412;18.884;2023-11-19T04:30:07;11.05;;;5.80;;
56720;SDS011;53183;47.412;18.884;2023-11-19T04:32:35;9.30;;;5.03;;
56720;SDS011;53183;47.412;18.884;2023-11-19T04:35:02;12.40;;;5.40;;
56720;SDS011;53183;47.412;18.884;2023-11-19T04:37:32;12.32;;;6.07;;
56720;SDS011;53183;47.412;18.884;2023-11-19T04:39:59;11.90;;;5.60;;
56720;SDS011;53183;47.412;18.884;2023-11-19T04:42:29;11.90;;;5.65;;
56720;SDS011;53183;47.412;18.884;2023-11-19T04:44:57;13.98;;;5.70;;
56720;SDS011;53183;47.412;18.884;2023-11-19T04:47:24;11.80;;;5.82;;
56720;SDS011;53183;47.412;18.884;2023-11-19T04:49:51;11.48;;;5.05;;
56720;SDS011;53183;47.412;18.884;2023-11-19T04:52:18;10.20;;;4.43;;
56720;SDS011;53183;47.412;18.884;2023-11-19T04:54:45;11.12;;;5.90;;
56720;SDS011;53183;47.412;18.884;2023-11-19T04:57:13;15.57;;;6.43;;
56720;SDS011;53183;47.412;18.884;2023-11-19T04:59:40;10.57;;;5.72;;
56720;SDS011;53183;47.412;18.884;2023-11-19T05:02:08;10.95;;;5.07;;
56720;SDS011;53183;47.412;18.884;2023-11-19T05:04:36;14.93;;;6.25;;
56720;SDS011;53183;47.412;18.884;2023-11-19T05:07:04;17.37;;;6.60;;
56720;SDS011;53183;47.412;18.884;2023-11-19T05:09:32;13.00;;;5.95;;
56720;SDS011;53183;47.412;18.884;2023-11-19T05:11:59;11.35;;;6.12;;
56720;SDS011;53183;47.412;18.884;2023-11-19T05:14:28;12.82;;;5.43;;
56720;SDS011;53183;47.412;18.884;2023-11-19T05:16:55;16.00;;;6.05;;
56720;SDS011;53183;47.412;18.884;2023-11-19T05:19:23;11.27;;;5.57;;
56720;SDS011;53183;47.412;18.884;2023-11-19T05:21:50;11.88;;;5.20;;
56720;SDS011;53183;47.412;18.884;2023-11-19T05:24:19;10.23;;;4.72;;
56720;SDS011;53183;47.412;18.884;2023-11-19T05:26:46;13.02;;;5.70;;
56720;SDS011;53183;47.412;18.884;2023-11-19T05:29:14;14.18;;;6.32;;
56720;SDS011;53183;47.412;18.884;2023-11-19T05:31:41;11.63;;;5.75;;
56720;SDS011;53183;47.412;18.884;2023-11-19T05:34:11;13.90;;;6.50;;
56720;SDS011;53183;47.412;18.884;2023-11-19T05:36:38;11.43;;;5.68;;
56720;SDS011;53183;47.412;18.884;2023-11-19T05:39:06;11.30;;;5.65;;
56720;SDS011;53183;47.412;18.884;2023-11-19T05:41:33;12.30;;;5.87;;
56720;SDS011;53183;47.412;18.884;2023-11-19T05:44:00;15.18;;;7.25;;
56720;SDS011;53183;47.412;18.884;2023-11-19T05:46:28;15.60;;;7.03;;
56720;SDS011;53183;47.412;18.884;2023-11-19T05:48:56;25.15;;;8.10;;
56720;SDS011;53183;47.412;18.884;2023-11-19T05:51:23;25.10;;;9.35;;
56720;SDS011;53183;47.412;18.884;2023-11-19T05:53:52;23.23;;;9.45;;
56720;SDS011;53183;47.412;18.884;2023-11-19T05:56:20;22.52;;;9.02;;
56720;SDS011;53183;47.412;18.884;2023-11-19T05:58:49;21.75;;;9.90;;
56720;SDS011;53183;47.412;18.884;2023-11-19T06:01:17;25.42;;;10.57;;
56720;SDS011;53183;47.412;18.884;2023-11-19T06:03:45;25.37;;;11.30;;
56720;SDS011;53183;47.412;18.884;2023-11-19T06:06:18;25.05;;;11.27;;
56720;SDS011;53183;47.412;18.884;2023-11-19T06:08:47;25.58;;;13.23;;
56720;SDS011;53183;47.412;18.884;2023-11-19T06:11:15;22.13;;;11.10;;
56720;SDS011;53183;47.412;18.884;2023-11-19T06:13:54;19.15;;;10.70;;
56720;SDS011;53183;47.412;18.884;2023-11-19T06:16:22;30.52;;;12.35;;
56720;SDS011;53183;47.412;18.884;2023-11-19T06:18:50;26.98;;;12.50;;
56720;SDS011;53183;47.412;18.884;2023-11-19T06:21:18;27.42;;;11.30;;
56720;SDS011;53183;47.412;18.884;2023-11-19T06:23:46;26.40;;;11.93;;
56720;SDS011;53183;47.412;18.884;2023-11-19T06:26:15;23.02;;;10.27;;
56720;SDS011;53183;47.412;18.884;2023-11-19T06:28:42;25.27;;;10.63;;
56720;SDS011;53183;47.412;18.884;2023-11-19T06:31:10;23.33;;;11.02;;
56720;SDS011;53183;47.412;18.884;2023-11-19T06:33:38;23.40;;;12.02;;
56720;SDS011;53183;47.412;18.884;2023-11-19T06:36:08;32.33;;;12.50;;
56720;SDS011;53183;47.412;18.884;2023-11-19T06:38:36;26.80;;;11.63;;
56720;SDS011;53183;47.412;18.884;2023-11-19T06:41:06;22.65;;;11.65;;
56720;SDS011;53183;47.412;18.884;2023-11-19T06:43:36;24.70;;;12.43;;
56720;SDS011;53183;47.412;18.884;2023-11-19T06:46:17;26.98;;;11.57;;
56720;SDS011;53183;47.412;18.884;2023-11-19T06:48:45;21.92;;;11.82;;
56720;SDS011;53183;47.412;18.884;2023-11-19T06:51:13;26.15;;;11.20;;
56720;SDS011;53183;47.412;18.884;2023-11-19T06:53:42;29.67;;;12.15;;
56720;SDS011;53183;47.412;18.884;2023-11-19T06:56:17;27.40;;;11.87;;
56720;SDS011;53183;47.412;18.884;2023-11-19T06:58:47;30.02;;;11.23;;
56720;SDS011;53183;47.412;18.884;2023-11-19T07:01:18;21.00;;;11.32;;
56720;SDS011;53183;47.412;18.884;2023-11-19T07:03:46;19.42;;;9.60;;
56720;SDS011;53183;47.412;18.884;2023-11-19T07:06:15;17.40;;;9.45;;
56720;SDS011;53183;47.412;18.884;2023-11-19T07:08:43;18.92;;;10.10;;
56720;SDS011;53183;47.412;18.884;2023-11-19T07:11:14;19.02;;;9.25;;
56720;SDS011;53183;47.412;18.884;2023-11-19T07:13:43;28.58;;;12.05;;
56720;SDS011;53183;47.412;18.884;2023-11-19T07:16:14;33.72;;;14.15;;
56720;SDS011;53183;47.412;18.884;2023-11-19T07:18:42;33.67;;;15.88;;
56720;SDS011;53183;47.412;18.884;2023-11-19T07:21:10;32.25;;;16.40;;
56720;SDS011;53183;47.412;18.884;2023-11-19T07:23:45;36.92;;;16.10;;
56720;SDS011;53183;47.412;18.884;2023-11-19T07:26:13;39.33;;;16.98;;
56720;SDS011;53183;47.412;18.884;2023-11-19T07:28:41;31.52;;;13.57;;
56720;SDS011;53183;47.412;18.884;2023-11-19T07:31:08;28.30;;;14.50;;
56720;SDS011;53183;47.412;18.884;2023-11-19T07:33:36;20.52;;;10.15;;
56720;SDS011;53183;47.412;18.884;2023-11-19T07:36:04;17.00;;;9.77;;
56720;SDS011;53183;47.412;18.884;2023-11-19T07:38:32;18.55;;;10.23;;
56720;SDS011;53183;47.412;18.884;2023-11-19T07:41:01;23.52;;;10.93;;
56720;SDS011;53183;47.412;18.884;2023-11-19T07:43:28;23.75;;;11.63;;
56720;SDS011;53183;47.412;18.884;2023-11-19T07:45:56;23.65;;;12.43;;
56720;SDS011;53183;47.412;18.884;2023-11-19T07:48:26;23.35;;;12.82;;
56720;SDS011;53183;47.412;18.884;2023-11-19T07:50:53;21.15;;;10.30;;
56720;SDS011;53183;47.412;18.884;2023-11-19T07:53:24;19.45;;;9.80;;
56720;SDS011;53183;47.412;18.884;2023-11-19T07:55:52;19.37;;;9.93;;
56720;SDS011;53183;47.412;18.884;2023-11-19T07:58:20;19.12;;;10.00;;
56720;SDS011;53183;47.412;18.884;2023-11-19T08:00:48;17.67;;;8.73;;
56720;SDS011;53183;47.412;18.884;2023-11-19T08:03:15;18.30;;;9.73;;
56720;SDS011;53183;47.412;18.884;2023-11-19T08:05:47;19.75;;;11.12;;
56720;SDS011;53183;47.412;18.884;2023-11-19T08:08:15;18.58;;;9.13;;
56720;SDS011;53183;47.412;18.884;2023-11-19T08:10:42;25.95;;;12.57;;
56720;SDS011;53183;47.412;18.884;2023-11-19T08:13:15;20.90;;;11.02;;
56720;SDS011;53183;47.412;18.884;2023-11-19T08:15:44;20.88;;;10.65;;
56720;SDS011;53183;47.412;18.884;2023-11-19T08:18:11;20.08;;;9.93;;
56720;SDS011;53183;47.412;18.884;2023-11-19T08:20:39;16.45;;;8.48;;
56720;SDS011;53183;47.412;18.884;2023-11-19T08:23:06;17.35;;;8.95;;
56720;SDS011;53183;47.412;18.884;2023-11-19T08:25:39;22.98;;;10.18;;
56720;SDS011;53183;47.412;18.884;2023-11-19T08:28:07;25.23;;;11.80;;
56720;SDS011;53183;47.412;18.884;2023-11-19T08:30:35;24.60;;;11.85;;
56720;SDS011;53183;47.412;18.884;2023-11-19T08:33:02;25.30;;;12.68;;
56720;SDS011;53183;47.412;18.884;2023-11-19T08:35:31;35.35;;;13.02;;
56720;SDS011;53183;47.412;18.884;2023-11-19T08:37:59;32.30;;;14.52;;
56720;SDS011;53183;47.412;18.884;2023-11-19T08:40:27;29.27;;;13.68;;
56720;SDS011;53183;47.412;18.884;2023-11-19T08:42:56;24.42;;;10.90;;
56720;SDS011;53183;47.412;18.884;2023-11-19T08:45:24;22.98;;;11.80;;
56720;SDS011;53183;47.412;18.884;2023-11-19T08:47:52;21.40;;;10.82;;
56720;SDS011;53183;47.412;18.884;2023-11-19T08:50:22;23.45;;;11.82;;
56720;SDS011;53183;47.412;18.884;2023-11-19T08:52:50;28.38;;;12.57;;
56720;SDS011;53183;47.412;18.884;2023-11-19T08:55:18;21.77;;;11.80;;
56720;SDS011;53183;47.412;18.884;2023-11-19T08:57:47;30.50;;;12.23;;
56720;SDS011;53183;47.412;18.884;2023-11-19T09:00:15;27.02;;;12.10;;
56720;SDS011;53183;47.412;18.884;2023-11-19T09:02:43;24.37;;;11.88;;
56720;SDS011;53183;47.412;18.884;2023-11-19T09:05:11;24.05;;;11.38;;
56720;SDS011;53183;47.412;18.884;2023-11-19T09:07:40;23.90;;;12.05;;
56720;SDS011;53183;47.412;18.884;2023-11-19T09:10:08;20.23;;;10.90;;
56720;SDS011;53183;47.412;18.884;2023-11-19T09:12:36;23.75;;;11.18;;
56720;SDS011;53183;47.412;18.884;2023-11-19T09:15:03;22.35;;;12.48;;
56720;SDS011;53183;47.412;18.884;2023-11-19T09:17:31;27.13;;;14.13;;
56720;SDS011;53183;47.412;18.884;2023-11-19T09:19:59;26.33;;;13.90;;
56720;SDS011;53183;47.412;18.884;2023-11-19T09:22:28;23.05;;;11.75;;
56720;SDS011;53183;47.412;18.884;2023-11-19T09:24:56;24.70;;;12.30;;
56720;SDS011;53183;47.412;18.884;2023-11-19T09:27:33;26.23;;;12.65;;
56720;SDS011;53183;47.412;18.884;2023-11-19T09:30:06;29.10;;;12.48;;
56720;SDS011;53183;47.412;18.884;2023-11-19T09:32:34;24.87;;;12.13;;
56720;SDS011;53183;47.412;18.884;2023-11-19T09:35:02;20.92;;;9.52;;
56720;SDS011;53183;47.412;18.884;2023-11-19T09:37:30;22.37;;;10.07;;
56720;SDS011;53183;47.412;18.884;2023-11-19T09:39:58;22.92;;;10.98;;
56720;SDS011;53183;47.412;18.884;2023-11-19T09:42:28;18.42;;;9.27;;
56720;SDS011;53183;47.412;18.884;2023-11-19T09:44:55;19.35;;;9.50;;
56720;SDS011;53183;47.412;18.884;2023-11-19T09:47:24;22.73;;;9.55;;
56720;SDS011;53183;47.412;18.884;2023-11-19T09:49:56;37.40;;;11.82;;
56720;SDS011;53183;47.412;18.884;2023-11-19T09:52:26;22.52;;;10.23;;
56720;SDS011;53183;47.412;18.884;2023-11-19T09:54:53;20.17;;;9.57;;
56720;SDS011;53183;47.412;18.884;2023-11-19T09:57:20;18.87;;;9.48;;
56720;SDS011;53183;47.412;18.884;2023-11-19T09:59:48;19.80;;;9.57;;
56720;SDS011;53183;47.412;18.884;2023-11-19T10:02:17;16.00;;;7.87;;
56720;SDS011;53183;47.412;18.884;2023-11-19T10:04:48;18.48;;;9.40;;
56720;SDS011;53183;47.412;18.884;2023-11-19T10:07:17;20.65;;;8.82;;
56720;SDS011;53183;47.412;18.884;2023-11-19T10:09:46;15.75;;;8.02;;
56720;SDS011;53183;47.412;18.884;2023-11-19T10:12:14;21.73;;;10.10;;
56720;SDS011;53183;47.412;18.884;2023-11-19T10:14:43;17.02;;;8.43;;
56720;SDS011;53183;47.412;18.884;2023-11-19T10:17:12;20.83;;;9.05;;
56720;SDS011;53183;47.412;18.884;2023-11-19T10:19:40;13.05;;;7.12;;
56720;SDS011;53183;47.412;18.884;2023-11-19T10:22:09;12.90;;;7.03;;
56720;SDS011;53183;47.412;18.884;2023-11-19T10:24:37;10.35;;;6.18;;
56720;SDS011;53183;47.412;18.884;2023-11-19T10:27:12;14.85;;;6.85;;
56720;SDS011;53183;47.412;18.884;2023-11-19T10:29:44;11.95;;;7.37;;
56720;SDS011;53183;47.412;18.884;2023-11-19T10:32:12;17.35;;;8.23;;
56720;SDS011;53183;47.412;18.884;2023-11-19T10:35:04;17.35;;;8.80;;
56720;SDS011;53183;47.412;18.884;2023-11-19T10:37:33;19.60;;;9.60;;
56720;SDS011;53183;47.412;18.884;2023-11-19T10:40:04;19.87;;;9.82;;
56720;SDS011;53183;47.412;18.884;2023-11-19T10:42:41;17.42;;;10.20;;
56720;SDS011;53183;47.412;18.884;2023-11-19T10:45:21;21.23;;;10.52;;
56720;SDS011;53183;47.412;18.884;2023-11-19T10:47:51;18.52;;;9.32;;
56720;SDS011;53183;47.412;18.884;2023-11-19T10:50:19;16.45;;;7.93;;
56720;SDS011;53183;47.412;18.884;2023-11-19T10:52:47;17.60;;;7.45;;
56720;SDS011;53183;47.412;18.884;2023-11-19T10:55:15;16.27;;;7.57;;
56720;SDS011;53183;47.412;18.884;2023-11-19T10:57:52;12.90;;;7.53;;
56720;SDS011;53183;47.412;18.884;2023-11-19T11:00:26;19.83;;;9.90;;
56720;SDS011;53183;47.412;18.884;2023-11-19T11:03:00;19.70;;;10.23;;
56720;SDS011;53183;47.412;18.884;2023-11-19T11:05:30;21.12;;;10.63;;
56720;SDS011;53183;47.412;18.884;2023-11-19T11:08:00;22.37;;;11.77;;
56720;SDS011;53183;47.412;18.884;2023-11-19T11:10:28;21.45;;;10.80;;
56720;SDS011;53183;47.412;18.884;2023-11-19T11:13:01;17.33;;;9.68;;
56720;SDS011;53183;47.412;18.884;2023-11-19T11:15:31;23.12;;;10.77;;
56720;SDS011;53183;47.412;18.884;2023-11-19T11:18:00;17.45;;;9.30;;
56720;SDS011;53183;47.412;18.884;2023-11-19T11:20:32;18.52;;;8.48;;
56720;SDS011;53183;47.412;18.884;2023-11-19T11:29:02;21.70;;;9.15;;
56720;SDS011;53183;47.412;18.884;2023-11-19T11:34:53;19.75;;;9.20;;
56720;SDS011;53183;47.412;18.884;2023-11-19T11:40:15;16.27;;;9.13;;
56720;SDS011;53183;47.412;18.884;2023-11-19T11:42:45;20.70;;;10.05;;
56720;SDS011;53183;47.412;18.884;2023-11-19T11:45:13;25.75;;;10.75;;
56720;SDS011;53183;47.412;18.884;2023-11-19T11:50:13;23.58;;;9.38;;
56720;SDS011;53183;47.412;18.884;2023-11-19T11:55:35;14.57;;;8.20;;
56720;SDS011;53183;47.412;18.884;2023-11-19T11:58:06;18.05;;;10.40;;
56720;SDS011;53183;47.412;18.884;2023-11-19T12:00:40;19.15;;;10.35;;
56720;SDS011;53183;47.412;18.884;2023-11-19T12:05:43;17.12;;;9.32;;
56720;SDS011;53183;47.412;18.884;2023-11-19T12:08:16;19.48;;;9.75;;
56720;SDS011;53183;47.412;18.884;2023-11-19T12:10:54;19.77;;;10.48;;
56720;SDS011;53183;47.412;18.884;2023-11-19T12:14:02;18.27;;;10.85;;
56720;SDS011;53183;47.412;18.884;2023-11-19T12:16:24;26.08;;;12.68;;
56720;SDS011;53183;47.412;18.884;2023-11-19T12:18:56;25.48;;;11.30;;
56720;SDS011;53183;47.412;18.884;2023-11-19T12:21:31;20.55;;;9.98;;
56720;SDS011;53183;47.412;18.884;2023-11-19T12:24:00;18.10;;;9.70;;
56720;SDS011;53183;47.412;18.884;2023-11-19T12:26:34;17.77;;;9.63;;
56720;SDS011;53183;47.412;18.884;2023-11-19T12:29:04;17.73;;;9.15;;
56720;SDS011;53183;47.412;18.884;2023-11-19T12:31:35;18.90;;;8.93;;
56720;SDS011;53183;47.412;18.884;2023-11-19T12:34:07;16.05;;;8.85;;
56720;SDS011;53183;47.412;18.884;2023-11-19T12:36:36;17.25;;;8.18;;
56720;SDS011;53183;47.412;18.884;2023-11-19T12:39:03;13.35;;;8.57;;
56720;SDS011;53183;47.412;18.884;2023-11-19T12:41:31;15.57;;;8.52;;
56720;SDS011;53183;47.412;18.884;2023-11-19T12:44:10;24.95;;;9.73;;
56720;SDS011;53183;47.412;18.884;2023-11-19T12:46:40;18.05;;;9.20;;
56720;SDS011;53183;47.412;18.884;2023-11-19T12:49:11;18.37;;;9.52;;
56720;SDS011;53183;47.412;18.884;2023-11-19T12:51:39;23.48;;;10.52;;
56720;SDS011;53183;47.412;18.884;2023-11-19T12:54:08;18.98;;;10.05;;
56720;SDS011;53183;47.412;18.884;2023-11-19T12:56:35;20.77;;;9.52;;
56720;SDS011;53183;47.412;18.884;2023-11-19T12:59:11;18.83;;;9.82;;
56720;SDS011;53183;47.412;18.884;2023-11-19T13:01:39;16.30;;;8.40;;
56720;SDS011;53183;47.412;18.884;2023-11-19T13:04:18;17.48;;;9.65;;
56720;SDS011;53183;47.412;18.884;2023-11-19T13:06:46;23.25;;;10.15;;
56720;SDS011;53183;47.412;18.884;2023-11-19T13:09:31;21.90;;;9.02;;
56720;SDS011;53183;47.412;18.884;2023-11-19T13:11:59;20.55;;;10.90;;
56720;SDS011;53183;47.412;18.884;2023-11-19T13:14:36;18.02;;;9.85;;
56720;SDS011;53183;47.412;18.884;2023-11-19T13:17:12;20.58;;;10.05;;
56720;SDS011;53183;47.412;18.884;2023-11-19T13:19:40;23.48;;;10.43;;
56720;SDS011;53183;47.412;18.884;2023-11-19T13:22:09;24.65;;;11.35;;
56720;SDS011;53183;47.412;18.884;2023-11-19T13:24:37;19.73;;;10.07;;
56720;SDS011;53183;47.412;18.884;2023-11-19T13:27:04;26.23;;;10.52;;
56720;SDS011;53183;47.412;18.884;2023-11-19T13:29:31;20.62;;;9.13;;
56720;SDS011;53183;47.412;18.884;2023-11-19T13:32:02;19.35;;;9.60;;
56720;SDS011;53183;47.412;18.884;2023-11-19T13:34:32;27.13;;;11.57;;
56720;SDS011;53183;47.412;18.884;2023-11-19T13:36:59;25.23;;;11.95;;
56720;SDS011;53183;47.412;18.884;2023-11-19T13:39:29;20.67;;;10.73;;
56720;SDS011;53183;47.412;18.884;2023-11-19T13:41:56;20.20;;;10.80;;
56720;SDS011;53183;47.412;18.884;2023-11-19T13:44:27;24.02;;;12.60;;
56720;SDS011;53183;47.412;18.884;2023-11-19T13:46:54;31.00;;;13.32;;
56720;SDS011;53183;47.412;18.884;2023-11-19T13:49:23;20.98;;;11.40;;
56720;SDS011;53183;47.412;18.884;2023-11-19T13:51:51;25.37;;;12.70;;
56720;SDS011;53183;47.412;18.884;2023-11-19T13:54:20;22.02;;;10.13;;
56720;SDS011;53183;47.412;18.884;2023-11-19T13:56:48;16.77;;;9.48;;
56720;SDS011;53183;47.412;18.884;2023-11-19T13:59:15;23.52;;;11.80;;
56720;SDS011;53183;47.412;18.884;2023-11-19T14:01:43;17.75;;;9.35;;
56720;SDS011;53183;47.412;18.884;2023-11-19T14:04:10;15.07;;;7.95;;
56720;SDS011;53183;47.412;18.884;2023-11-19T14:06:37;11.27;;;7.55;;
56720;SDS011;53183;47.412;18.884;2023-11-19T14:09:06;19.20;;;8.00;;
56720;SDS011;53183;47.412;18.884;2023-11-19T14:11:34;21.90;;;10.40;;
56720;SDS011;53183;47.412;18.884;2023-11-19T14:14:04;30.17;;;13.43;;
56720;SDS011;53183;47.412;18.884;2023-11-19T14:16:36;44.10;;;18.62;;
56720;SDS011;53183;47.412;18.884;2023-11-19T14:19:04;38.40;;;16.25;;
56720;SDS011;53183;47.412;18.884;2023-11-19T14:21:32;40.90;;;17.10;;
56720;SDS011;53183;47.412;18.884;2023-11-19T14:24:00;27.27;;;13.50;;
56720;SDS011;53183;47.412;18.884;2023-11-19T14:26:28;28.70;;;14.45;;
56720;SDS011;53183;47.412;18.884;2023-11-19T14:28:55;27.95;;;14.98;;
56720;SDS011;53183;47.412;18.884;2023-11-19T14:31:22;27.83;;;13.68;;
56720;SDS011;53183;47.412;18.884;2023-11-19T14:33:49;27.37;;;13.65;;
56720;SDS011;53183;47.412;18.884;2023-11-19T14:36:17;30.98;;;14.87;;
56720;SDS011;53183;47.412;18.884;2023-11-19T14:38:45;32.80;;;14.93;;
56720;SDS011;53183;47.412;18.884;2023-11-19T14:41:12;33.08;;;16.90;;
56720;SDS011;53183;47.412;18.884;2023-11-19T14:43:40;44.40;;;16.77;;
56720;SDS011;53183;47.412;18.884;2023-11-19T14:46:08;33.30;;;13.62;;
56720;SDS011;53183;47.412;18.884;2023-11-19T14:48:36;30.77;;;15.02;;
56720;SDS011;53183;47.412;18.884;2023-11-19T14:51:03;34.80;;;16.37;;